Time;durP1;ratioP1;P1;durP2;ratioP2;P2;SDS_P1;SDS_P2;PMS_P1;PMS_P2;Temp;Humidity;BMP_temperature;BMP_pressure;BME280_temperature;BME280_humidity;BME280_pressure;Samples;Min_cycle;Max_cycle;Signal;HPM_P1;HPM_P2
2021/07/13 00:01:46;;;;;;;14.30;8.18;;;17.80;99.90;;;;;;4945634;28;20047;-76
2021/07/13 00:04:14;;;;;;;12.23;7.90;;;17.70;99.90;;;;;;4964599;28;20534;-76
2021/07/13 00:06:46;;;;;;;10.55;7.13;;;17.60;99.90;;;;;;4952706;28;20603;-76
2021/07/13 00:09:13;;;;;;;7.93;7.15;;;17.60;99.90;;;;;;4960522;28;20140;-76
2021/07/13 00:11:40;;;;;;;8.50;7.60;;;17.70;99.90;;;;;;4950059;28;20063;-75
2021/07/13 00:14:07;;;;;;;10.30;8.32;;;17.70;99.90;;;;;;4948782;28;20047;-76
2021/07/13 00:16:34;;;;;;;11.13;8.55;;;17.70;99.90;;;;;;4933369;29;20680;-76
2021/07/13 00:19:02;;;;;;;8.13;7.30;;;17.70;99.90;;;;;;4930782;29;20051;-75
2021/07/13 00:21:28;;;;;;;9.15;7.60;;;17.70;99.90;;;;;;4947385;28;20078;-76
2021/07/13 00:23:55;;;;;;;8.75;7.82;;;17.70;99.90;;;;;;4947032;28;20051;-76
2021/07/13 00:26:24;;;;;;;8.68;7.78;;;17.60;99.90;;;;;;4956210;28;20095;-76
2021/07/13 00:28:50;;;;;;;7.97;6.80;;;17.50;99.90;;;;;;4948021;28;20050;-76
2021/07/13 00:31:17;;;;;;;7.35;6.60;;;17.50;99.90;;;;;;4933672;28;20511;-76
2021/07/13 00:33:44;;;;;;;8.18;7.18;;;17.20;99.90;;;;;;4949103;28;20142;-75
2021/07/13 00:36:11;;;;;;;11.13;7.22;;;17.00;99.90;;;;;;4930831;28;20106;-76
2021/07/13 00:38:38;;;;;;;13.23;7.28;;;17.00;99.90;;;;;;4934358;28;20199;-76
2021/07/13 00:41:05;;;;;;;8.13;6.82;;;17.00;99.90;;;;;;4965539;28;20055;-76
2021/07/13 00:43:33;;;;;;;8.38;7.55;;;17.10;99.90;;;;;;4932745;28;20063;-76
2021/07/13 00:46:00;;;;;;;8.70;7.80;;;17.10;99.90;;;;;;4924460;29;20086;-76
2021/07/13 00:48:27;;;;;;;8.70;7.88;;;17.00;99.90;;;;;;4947214;28;20055;-76
2021/07/13 00:50:58;;;;;;;8.57;7.45;;;16.90;99.90;;;;;;4932007;28;20059;-76
2021/07/13 00:53:28;;;;;;;9.98;8.23;;;16.90;99.90;;;;;;4925403;29;20049;-76
2021/07/13 00:55:56;;;;;;;10.45;8.00;;;16.90;99.90;;;;;;4952606;28;20055;-75
2021/07/13 00:58:25;;;;;;;12.32;8.23;;;16.90;99.90;;;;;;4964713;28;20090;-76
2021/07/13 01:00:52;;;;;;;10.82;8.23;;;16.80;99.90;;;;;;4947363;28;20109;-75
2021/07/13 01:03:19;;;;;;;9.30;8.32;;;16.90;99.90;;;;;;4930015;29;20569;-76
2021/07/13 01:05:48;;;;;;;9.45;8.07;;;16.90;99.90;;;;;;4956915;28;20047;-76
2021/07/13 01:08:35;;;;;;;12.48;8.00;;;16.70;99.90;;;;;;4931243;29;20047;-76
2021/07/13 01:11:11;;;;;;;8.93;7.45;;;16.60;99.90;;;;;;4928225;28;20055;-76
2021/07/13 01:14:00;;;;;;;18.40;8.85;;;16.60;99.90;;;;;;4928432;28;20088;-76
2021/07/13 01:16:37;;;;;;;9.43;8.38;;;16.70;99.90;;;;;;4957448;28;20054;-76
2021/07/13 01:19:37;;;;;;;9.35;7.68;;;16.70;99.90;;;;;;4926598;29;20398;-76
2021/07/13 01:22:15;;;;;;;12.18;8.82;;;16.70;99.90;;;;;;4950089;28;20447;-75
2021/07/13 01:25:01;;;;;;;10.52;8.45;;;16.70;99.90;;;;;;4948114;28;20287;-76
2021/07/13 01:27:49;;;;;;;10.95;8.02;;;16.50;99.90;;;;;;4962378;28;20049;-76
2021/07/13 01:30:25;;;;;;;10.30;7.50;;;16.30;99.90;;;;;;4916013;28;20067;-76
2021/07/13 01:33:10;;;;;;;9.52;8.23;;;16.20;99.90;;;;;;4954935;28;20134;-76
2021/07/13 01:35:45;;;;;;;14.07;8.18;;;16.10;99.90;;;;;;4963004;28;20047;-76
2021/07/13 01:38:13;;;;;;;10.68;8.50;;;16.10;99.90;;;;;;4946739;28;20435;-76
2021/07/13 01:40:43;;;;;;;12.98;9.02;;;16.10;99.90;;;;;;4958403;28;20047;-75
2021/07/13 01:43:11;;;;;;;11.02;7.93;;;16.10;99.90;;;;;;4936642;28;20138;-76
2021/07/13 01:45:40;;;;;;;9.82;7.32;;;16.00;99.90;;;;;;4960047;28;20176;-76
2021/07/13 01:48:12;;;;;;;9.77;8.77;;;16.00;99.90;;;;;;4954282;28;20483;-75
2021/07/13 01:50:43;;;;;;;9.60;8.15;;;16.10;99.90;;;;;;4939072;28;20288;-76
2021/07/13 01:53:11;;;;;;;11.70;8.45;;;16.20;99.90;;;;;;4947707;28;20046;-76
2021/07/13 01:55:40;;;;;;;10.30;7.72;;;16.00;99.90;;;;;;4950460;28;20055;-76
2021/07/13 01:58:08;;;;;;;12.52;8.68;;;16.00;99.90;;;;;;4961351;28;20065;-76
2021/07/13 02:00:36;;;;;;;11.50;9.00;;;16.00;99.90;;;;;;4947454;28;20105;-76
2021/07/13 02:03:04;;;;;;;9.80;8.32;;;16.00;99.90;;;;;;4943399;28;20130;-76
2021/07/13 02:05:34;;;;;;;16.00;9.48;;;16.10;99.90;;;;;;4945134;28;20070;-76
2021/07/13 02:08:04;;;;;;;11.65;9.23;;;16.10;99.90;;;;;;4945894;28;20055;-76
2021/07/13 02:10:32;;;;;;;12.50;8.93;;;16.00;99.90;;;;;;4929736;28;20165;-76
2021/07/13 02:12:59;;;;;;;11.50;8.90;;;16.00;99.90;;;;;;4944987;28;20047;-76
2021/07/13 02:15:26;;;;;;;13.05;9.70;;;16.10;99.90;;;;;;4928475;28;20043;-76
2021/07/13 02:17:54;;;;;;;10.55;9.13;;;16.10;99.90;;;;;;4945054;28;20046;-76
2021/07/13 02:20:22;;;;;;;14.43;9.35;;;16.10;99.90;;;;;;4957604;28;20078;-76
2021/07/13 02:22:49;;;;;;;10.45;8.70;;;16.10;99.90;;;;;;4955998;28;20403;-77
2021/07/13 02:25:16;;;;;;;12.27;9.45;;;16.00;99.90;;;;;;4955687;28;20054;-76
2021/07/13 02:27:54;;;;;;;10.63;8.73;;;16.00;99.90;;;;;;4957900;28;20121;-76
2021/07/13 02:30:24;;;;;;;12.80;8.70;;;15.90;99.90;;;;;;4964917;28;20086;-77
2021/07/13 02:33:02;;;;;;;13.35;10.65;;;15.90;99.90;;;;;;4954547;28;20047;-76
2021/07/13 02:35:43;;;;;;;13.88;10.95;;;16.10;99.90;;;;;;4944437;28;20050;-76
2021/07/13 02:38:11;;;;;;;13.40;9.43;;;16.20;99.90;;;;;;4935826;28;20039;-77
2021/07/13 02:40:39;;;;;;;14.05;10.80;;;16.20;99.90;;;;;;4947175;28;20519;-77
2021/07/13 02:43:06;;;;;;;11.25;9.82;;;16.10;99.90;;;;;;4944943;28;20698;-76
2021/07/13 02:45:35;;;;;;;13.18;9.35;;;16.10;99.90;;;;;;4945556;28;20129;-76
2021/07/13 02:48:03;;;;;;;11.15;9.40;;;16.20;99.90;;;;;;4957134;28;20047;-76
2021/07/13 02:50:31;;;;;;;11.85;9.30;;;16.20;99.90;;;;;;4944400;28;20082;-77
2021/07/13 02:52:59;;;;;;;10.90;8.32;;;16.10;99.90;;;;;;4930900;29;20145;-77
2021/07/13 02:55:30;;;;;;;10.73;8.85;;;16.00;99.90;;;;;;4932229;28;20113;-76
2021/07/13 02:57:59;;;;;;;14.40;8.45;;;16.10;99.90;;;;;;4945810;28;20042;-77
2021/07/13 03:00:28;;;;;;;12.48;9.60;;;16.20;99.90;;;;;;4946548;28;20160;-77
2021/07/13 03:02:55;;;;;;;10.85;8.20;;;16.20;99.90;;;;;;4918954;28;20146;-76
2021/07/13 03:05:24;;;;;;;13.35;9.30;;;16.20;99.90;;;;;;4957130;28;20963;-77
2021/07/13 03:07:52;;;;;;;12.27;9.40;;;16.20;99.90;;;;;;4947981;28;20051;-77
2021/07/13 03:10:26;;;;;;;14.45;10.60;;;16.20;99.90;;;;;;4946548;28;20047;-77
2021/07/13 03:12:55;;;;;;;12.70;9.38;;;16.20;99.90;;;;;;4958587;28;20510;-77
2021/07/13 03:15:28;;;;;;;13.05;10.85;;;16.30;99.90;;;;;;4960433;28;20547;-76
2021/07/13 03:17:55;;;;;;;11.55;9.23;;;16.30;99.90;;;;;;4926935;29;20130;-77
2021/07/13 03:20:23;;;;;;;10.35;8.82;;;16.30;99.90;;;;;;4938697;28;20050;-77
2021/07/13 03:22:51;;;;;;;11.52;9.40;;;16.30;99.90;;;;;;4928916;28;20066;-76
2021/07/13 03:25:26;;;;;;;12.75;10.20;;;16.50;99.90;;;;;;4944551;28;20039;-77
2021/07/13 03:27:54;;;;;;;13.05;9.68;;;16.50;99.90;;;;;;4957989;28;20042;-76
2021/07/13 03:30:22;;;;;;;14.60;10.15;;;16.50;99.90;;;;;;4962820;28;20137;-77
2021/07/13 03:32:52;;;;;;;13.95;8.82;;;16.50;99.90;;;;;;4945074;28;20561;-77
2021/07/13 03:35:21;;;;;;;11.98;9.43;;;16.60;99.90;;;;;;4942938;28;20054;-76
2021/07/13 03:37:52;;;;;;;12.40;9.55;;;16.70;99.90;;;;;;4939213;28;20094;-77
2021/07/13 03:40:22;;;;;;;12.68;9.55;;;16.60;99.90;;;;;;4943524;28;20047;-76
2021/07/13 03:42:50;;;;;;;12.18;10.38;;;16.50;99.90;;;;;;4965767;28;20043;-77
2021/07/13 03:45:18;;;;;;;10.90;9.02;;;16.40;99.90;;;;;;4964553;28;20069;-77
2021/07/13 03:47:56;;;;;;;13.07;9.68;;;16.20;99.90;;;;;;4943918;29;20043;-77
2021/07/13 03:50:26;;;;;;;14.48;9.77;;;16.30;99.90;;;;;;4946473;28;20051;-76
2021/07/13 03:52:53;;;;;;;11.50;9.70;;;16.40;99.90;;;;;;4947282;28;20074;-77
2021/07/13 03:55:21;;;;;;;12.02;10.63;;;16.60;99.90;;;;;;4934771;28;20050;-76
2021/07/13 03:57:48;;;;;;;13.50;10.75;;;16.60;99.90;;;;;;4964664;28;20612;-77
2021/07/13 04:00:17;;;;;;;13.07;10.52;;;16.80;99.90;;;;;;4950097;28;20039;-77
2021/07/13 04:02:45;;;;;;;16.15;11.23;;;16.70;99.90;;;;;;4932943;28;20051;-77
2021/07/13 04:05:13;;;;;;;11.75;10.25;;;16.80;99.90;;;;;;4946101;28;20456;-76
2021/07/13 04:07:40;;;;;;;14.50;9.70;;;17.00;99.90;;;;;;4946597;28;20519;-76
2021/07/13 04:10:10;;;;;;;13.32;10.35;;;17.20;99.90;;;;;;4947703;28;20055;-77
2021/07/13 04:12:37;;;;;;;16.75;11.60;;;17.30;99.90;;;;;;4930583;29;20492;-77
2021/07/13 04:15:06;;;;;;;12.93;9.50;;;17.30;99.90;;;;;;4944225;28;20121;-77
2021/07/13 04:17:33;;;;;;;13.73;9.93;;;17.40;99.90;;;;;;4950555;28;20106;-76
2021/07/13 04:20:01;;;;;;;15.15;10.80;;;17.30;99.90;;;;;;4931837;28;20051;-77
2021/07/13 04:22:28;;;;;;;14.27;10.35;;;17.50;99.90;;;;;;4959390;28;20047;-76
2021/07/13 04:24:55;;;;;;;14.90;11.05;;;17.50;99.90;;;;;;4933411;28;20042;-77
2021/07/13 04:27:22;;;;;;;16.02;11.90;;;17.50;99.90;;;;;;4962095;28;20272;-77
2021/07/13 04:29:49;;;;;;;14.13;11.95;;;17.50;99.90;;;;;;4939619;28;20522;-76
2021/07/13 04:32:15;;;;;;;15.68;11.55;;;17.60;99.90;;;;;;4929952;28;20040;-76
2021/07/13 04:34:43;;;;;;;14.55;12.05;;;17.60;99.90;;;;;;4947478;28;20130;-77
2021/07/13 04:37:10;;;;;;;13.77;11.75;;;17.60;99.90;;;;;;4937329;28;20062;-77
2021/07/13 04:39:36;;;;;;;14.65;12.40;;;17.60;99.90;;;;;;4966187;28;20055;-76
2021/07/13 04:42:04;;;;;;;21.60;13.00;;;17.60;99.90;;;;;;4915864;29;20094;-77
2021/07/13 04:44:30;;;;;;;14.85;11.90;;;17.60;99.90;;;;;;4935685;28;20138;-77
2021/07/13 04:46:57;;;;;;;15.45;12.20;;;17.50;99.90;;;;;;4963563;28;20062;-76
2021/07/13 04:49:31;;;;;;;14.75;10.98;;;17.50;99.90;;;;;;4949801;28;20535;-77
2021/07/13 04:51:59;;;;;;;16.08;11.85;;;17.50;99.90;;;;;;4963155;28;20467;-76
2021/07/13 04:54:30;;;;;;;16.73;11.82;;;17.50;99.90;;;;;;4929371;29;20046;-77
2021/07/13 04:57:01;;;;;;;12.05;10.65;;;17.60;99.90;;;;;;4941412;28;20042;-77
2021/07/13 04:59:28;;;;;;;16.88;11.50;;;17.60;99.90;;;;;;4965266;28;20047;-77
2021/07/13 05:01:55;;;;;;;13.10;11.40;;;17.60;99.90;;;;;;4936453;28;20051;-76
2021/07/13 05:04:24;;;;;;;16.02;12.18;;;17.60;99.90;;;;;;4960295;28;20051;-77
2021/07/13 05:06:51;;;;;;;15.27;11.85;;;17.50;99.90;;;;;;4947554;28;20065;-77
2021/07/13 05:09:19;;;;;;;15.73;12.20;;;17.40;99.90;;;;;;4955983;28;20136;-77
2021/07/13 05:11:46;;;;;;;18.20;13.52;;;17.40;99.90;;;;;;4914283;29;20047;-77
2021/07/13 05:14:14;;;;;;;15.18;13.02;;;17.50;99.90;;;;;;4960420;28;20081;-76
2021/07/13 05:16:41;;;;;;;15.05;13.05;;;17.50;99.90;;;;;;4948577;28;20039;-77
2021/07/13 05:19:10;;;;;;;14.02;12.60;;;17.50;99.90;;;;;;4965413;28;20198;-76
2021/07/13 05:21:40;;;;;;;16.27;12.70;;;17.50;99.90;;;;;;4964112;28;20146;-77
2021/07/13 05:24:07;;;;;;;18.77;14.75;;;17.60;99.90;;;;;;4946511;28;20098;-77
2021/07/13 05:26:33;;;;;;;16.70;14.50;;;17.60;99.90;;;;;;4955545;28;20145;-77
2021/07/13 05:29:04;;;;;;;15.45;12.90;;;17.80;99.90;;;;;;4947799;28;20669;-75
2021/07/13 05:31:32;;;;;;;17.55;13.73;;;17.90;99.90;;;;;;4944792;28;20129;-76
2021/07/13 05:33:59;;;;;;;17.45;12.60;;;17.80;99.90;;;;;;4946141;28;20054;-77
2021/07/13 05:36:27;;;;;;;16.77;14.43;;;17.90;99.90;;;;;;4943269;28;20044;-76
2021/07/13 05:38:54;;;;;;;19.52;13.98;;;17.90;99.90;;;;;;4944883;29;20143;-77
2021/07/13 05:41:22;;;;;;;21.55;14.57;;;17.90;99.90;;;;;;4930220;28;20127;-77
2021/07/13 05:43:50;;;;;;;15.95;13.73;;;18.10;99.90;;;;;;4955729;28;20166;-77
2021/07/13 05:46:17;;;;;;;18.77;13.45;;;18.20;99.90;;;;;;4961338;28;20478;-77
2021/07/13 05:48:45;;;;;;;16.83;14.07;;;18.10;99.90;;;;;;4947826;28;20055;-77
2021/07/13 05:51:12;;;;;;;20.30;14.10;;;18.20;99.90;;;;;;4965168;28;20051;-77
2021/07/13 05:53:39;;;;;;;15.65;13.95;;;18.20;99.90;;;;;;4947802;28;20627;-77
2021/07/13 05:56:07;;;;;;;17.17;14.93;;;18.20;99.90;;;;;;4936879;28;20171;-77
2021/07/13 05:58:35;;;;;;;16.20;14.35;;;18.40;99.90;;;;;;4949202;28;20129;-77
2021/07/13 06:01:03;;;;;;;16.77;14.65;;;18.40;99.90;;;;;;4964397;28;20042;-76
2021/07/13 06:03:30;;;;;;;16.73;13.25;;;18.30;99.90;;;;;;4951001;28;20120;-77
2021/07/13 06:05:57;;;;;;;17.90;13.77;;;18.60;99.90;;;;;;4929331;28;20067;-77
2021/07/13 06:08:24;;;;;;;16.08;13.90;;;18.60;99.90;;;;;;4930077;29;20058;-77
2021/07/13 06:10:51;;;;;;;14.35;12.88;;;18.60;99.90;;;;;;4944788;28;20047;-77
2021/07/13 06:13:19;;;;;;;15.25;13.60;;;18.70;99.90;;;;;;4954651;28;20531;-77
2021/07/13 06:15:46;;;;;;;17.45;14.27;;;18.70;99.90;;;;;;4966093;28;20283;-78
2021/07/13 06:18:21;;;;;;;15.70;13.23;;;18.80;99.90;;;;;;4958719;28;20245;-77
2021/07/13 06:20:48;;;;;;;16.23;14.25;;;18.80;99.90;;;;;;4946884;28;20488;-79
2021/07/13 06:23:15;;;;;;;17.95;14.55;;;19.00;99.90;;;;;;4952023;28;20103;-80
2021/07/13 06:25:42;;;;;;;18.75;14.45;;;19.00;99.90;;;;;;4937674;28;20038;-79
2021/07/13 06:28:10;;;;;;;18.80;14.40;;;19.20;99.90;;;;;;4937795;28;20097;-80
2021/07/13 06:30:37;;;;;;;16.75;14.77;;;19.10;99.90;;;;;;4967857;28;20057;-80
2021/07/13 06:33:05;;;;;;;18.17;14.52;;;19.10;99.90;;;;;;4948987;28;20118;-80
2021/07/13 06:35:32;;;;;;;16.50;14.30;;;19.10;99.90;;;;;;4948504;28;20051;-80
2021/07/13 06:37:59;;;;;;;12.80;11.57;;;19.10;99.90;;;;;;4958619;28;20089;-81
2021/07/13 06:40:27;;;;;;;21.83;15.30;;;19.30;99.90;;;;;;4949831;28;20051;-80
2021/07/13 06:42:54;;;;;;;14.80;13.30;;;19.40;99.90;;;;;;4945983;29;20040;-80
2021/07/13 06:45:21;;;;;;;17.17;13.95;;;19.40;99.90;;;;;;4930797;28;20736;-80
2021/07/13 06:47:53;;;;;;;22.45;14.25;;;19.30;99.90;;;;;;4949679;28;20059;-79
2021/07/13 06:50:24;;;;;;;15.75;13.65;;;19.40;99.90;;;;;;4949488;28;20109;-79
2021/07/13 06:52:52;;;;;;;14.85;13.35;;;19.50;99.90;;;;;;4941556;28;20102;-80
2021/07/13 06:55:19;;;;;;;17.85;13.52;;;19.60;99.90;;;;;;4930444;28;20047;-80
2021/07/13 06:57:46;;;;;;;18.63;13.48;;;19.60;99.90;;;;;;4949619;28;20130;-80
2021/07/13 07:00:14;;;;;;;17.50;12.90;;;19.80;99.90;;;;;;4948590;28;20817;-81
2021/07/13 07:02:41;;;;;;;14.82;13.25;;;19.90;99.90;;;;;;4941580;28;20054;-82
2021/07/13 07:05:08;;;;;;;17.33;14.70;;;19.90;99.90;;;;;;4928149;28;20061;-80
2021/07/13 07:07:43;;;;;;;16.55;14.40;;;20.10;99.90;;;;;;4932267;28;20050;-81
2021/07/13 07:10:10;;;;;;;17.92;14.13;;;20.20;99.90;;;;;;4948334;28;20113;-80
2021/07/13 07:12:37;;;;;;;15.18;13.57;;;20.20;99.90;;;;;;4949249;28;20113;-81
2021/07/13 07:15:05;;;;;;;15.38;13.23;;;20.20;99.90;;;;;;4935133;28;20543;-80
2021/07/13 07:17:32;;;;;;;16.35;12.90;;;20.10;99.90;;;;;;4935562;28;20043;-80
2021/07/13 07:20:01;;;;;;;17.02;13.15;;;20.30;99.90;;;;;;4952794;28;20074;-80
2021/07/13 07:22:28;;;;;;;15.02;13.45;;;20.40;99.90;;;;;;4946050;28;20060;-81
2021/07/13 07:24:55;;;;;;;17.73;14.60;;;20.40;99.90;;;;;;4916886;29;20130;-80
2021/07/13 07:27:21;;;;;;;22.88;18.25;;;20.30;99.90;;;;;;4967972;28;20050;-81
2021/07/13 07:29:52;;;;;;;22.15;18.80;;;20.20;99.90;;;;;;4967293;28;20208;-81
2021/07/13 07:32:19;;;;;;;23.52;18.00;;;20.00;99.90;;;;;;4945716;28;20063;-80
2021/07/13 07:34:47;;;;;;;24.15;19.10;;;19.90;99.90;;;;;;4949250;28;20134;-79
2021/07/13 07:37:13;;;;;;;24.63;20.40;;;19.80;99.90;;;;;;4933243;29;20207;-80
2021/07/13 07:39:41;;;;;;;24.02;18.48;;;19.60;99.90;;;;;;4948341;28;20045;-80
2021/07/13 07:42:08;;;;;;;23.92;19.50;;;19.60;99.90;;;;;;4952134;28;20050;-81
2021/07/13 07:44:35;;;;;;;25.35;19.25;;;19.60;99.90;;;;;;4952098;28;20054;-80
2021/07/13 07:47:03;;;;;;;23.10;18.25;;;19.50;99.90;;;;;;4952584;28;20059;-81
2021/07/13 07:49:30;;;;;;;23.23;20.08;;;19.50;99.90;;;;;;4941182;28;20051;-81
2021/07/13 07:51:57;;;;;;;27.90;20.50;;;19.50;99.90;;;;;;4947585;28;20432;-80
2021/07/13 07:54:24;;;;;;;24.88;20.45;;;19.40;99.90;;;;;;4934537;28;20054;-81
2021/07/13 07:56:57;;;;;;;29.45;21.80;;;19.50;99.90;;;;;;4950694;28;20043;-82
2021/07/13 07:59:24;;;;;;;28.77;21.48;;;19.40;99.90;;;;;;4953744;28;20042;-83
2021/07/13 08:01:51;;;;;;;32.10;23.63;;;19.30;99.90;;;;;;4935971;28;20142;-84
2021/07/13 08:04:18;;;;;;;29.08;23.15;;;19.30;99.90;;;;;;4935209;29;20497;-84
2021/07/13 08:06:45;;;;;;;30.30;20.98;;;19.30;99.90;;;;;;4966374;28;20101;-85
2021/07/13 08:09:13;;;;;;;30.63;24.38;;;19.30;99.90;;;;;;4939451;28;20105;-86
2021/07/13 08:11:41;;;;;;;30.13;23.17;;;19.30;99.90;;;;;;4938132;28;20479;-85
2021/07/13 08:14:08;;;;;;;29.73;23.42;;;19.40;99.90;;;;;;4961216;28;20381;-89
2021/07/13 08:16:35;;;;;;;35.42;24.85;;;19.50;99.90;;;;;;4938998;28;20146;-86
2021/07/13 08:19:04;;;;;;;27.17;23.17;;;19.50;99.90;;;;;;4954577;28;20054;-87
2021/07/13 08:21:39;;;;;;;33.65;24.50;;;19.30;99.90;;;;;;4939445;28;20518;-86
2021/07/13 08:24:08;;;;;;;42.28;27.13;;;19.30;99.90;;;;;;4936362;28;20047;-81
2021/07/13 08:26:35;;;;;;;40.90;28.42;;;19.30;99.90;;;;;;4939397;28;20059;-81
2021/07/13 08:29:02;;;;;;;35.38;26.70;;;19.10;99.90;;;;;;4951250;28;20051;-81
2021/07/13 08:31:30;;;;;;;38.65;29.85;;;18.80;99.90;;;;;;4966726;28;20743;-80
2021/07/13 08:33:57;;;;;;;41.38;28.27;;;18.60;99.90;;;;;;4949731;28;20445;-82
2021/07/13 08:36:24;;;;;;;45.05;31.73;;;18.60;99.90;;;;;;4931798;28;20246;-82
2021/07/13 08:38:51;;;;;;;54.05;34.10;;;18.60;99.90;;;;;;4933817;28;20061;-81
2021/07/13 08:41:22;;;;;;;39.00;30.00;;;18.70;99.90;;;;;;4943853;28;20126;-82
2021/07/13 08:43:50;;;;;;;44.90;32.30;;;18.50;99.90;;;;;;4945972;28;20737;-81
2021/07/13 08:46:21;;;;;;;45.17;32.83;;;18.50;99.90;;;;;;4950567;28;20129;-81
2021/07/13 08:48:53;;;;;;;46.85;32.08;;;18.50;99.90;;;;;;4951489;28;20046;-82
2021/07/13 08:51:20;;;;;;;55.67;34.00;;;18.50;99.90;;;;;;4924705;29;20055;-82
2021/07/13 08:53:47;;;;;;;54.88;38.50;;;18.60;99.90;;;;;;4931178;28;20053;-81
2021/07/13 08:56:14;;;;;;;57.70;38.15;;;18.70;99.90;;;;;;4955359;28;20058;-81
2021/07/13 08:58:41;;;;;;;55.63;35.97;;;18.80;99.90;;;;;;4951511;28;20055;-83
2021/07/13 09:01:08;;;;;;;54.22;35.10;;;18.80;99.90;;;;;;4967886;28;20077;-83
2021/07/13 09:03:35;;;;;;;48.67;33.97;;;18.70;99.90;;;;;;4921138;29;20057;-84
2021/07/13 09:06:04;;;;;;;59.40;37.88;;;18.60;99.90;;;;;;4963991;28;20504;-83
2021/07/13 09:08:37;;;;;;;55.42;37.67;;;18.50;99.90;;;;;;4932044;29;20082;-84
2021/07/13 09:11:18;;;;;;;45.95;33.30;;;18.70;99.90;;;;;;4934663;28;20150;-83
2021/07/13 09:13:48;;;;;;;46.85;34.85;;;18.70;99.90;;;;;;4936569;28;20050;-84
2021/07/13 09:16:25;;;;;;;55.13;38.15;;;18.80;99.90;;;;;;4935636;28;20047;-84
2021/07/13 09:18:54;;;;;;;58.00;37.25;;;19.00;99.90;;;;;;4968658;28;20092;-86
2021/07/13 09:21:23;;;;;;;62.00;40.20;;;19.10;99.90;;;;;;4933617;28;20229;-84
2021/07/13 09:24:16;;;;;;;56.58;38.70;;;19.10;99.90;;;;;;4935683;28;20061;-85
2021/07/13 09:26:58;;;;;;;50.55;35.35;;;19.20;99.90;;;;;;4931141;28;20062;-85
2021/07/13 09:29:35;;;;;;;53.58;37.00;;;19.40;99.90;;;;;;4964008;28;20050;-88
2021/07/13 09:32:22;;;;;;;54.17;37.33;;;19.50;99.90;;;;;;4933353;29;20229;-85
2021/07/13 09:34:55;;;;;;;50.88;37.80;;;19.60;99.90;;;;;;4950265;28;20051;-85
2021/07/13 09:37:26;;;;;;;43.13;31.92;;;19.50;99.90;;;;;;4949427;28;20352;-87
2021/07/13 09:40:13;;;;;;;45.20;33.45;;;19.60;99.90;;;;;;4932906;29;20122;-85
2021/07/13 09:42:51;;;;;;;38.88;29.80;;;19.50;99.90;;;;;;4956410;28;20506;-86
2021/07/13 09:45:19;;;;;;;43.65;30.92;;;19.40;99.90;;;;;;4969475;28;20067;-86
2021/07/13 09:47:48;;;;;;;42.00;33.03;;;19.50;99.90;;;;;;4954493;28;20062;-85
2021/07/13 09:50:40;;;;;;;44.67;32.38;;;19.60;99.90;;;;;;4943573;28;20094;-77
2021/07/13 09:53:09;;;;;;;43.05;32.00;;;19.60;99.90;;;;;;4955726;28;20547;-77
2021/07/13 09:55:37;;;;;;;42.60;31.75;;;19.80;99.90;;;;;;4934012;28;20415;-76
2021/07/13 09:58:13;;;;;;;43.67;34.15;;;20.00;99.90;;;;;;4962522;28;20051;-77
2021/07/13 10:00:42;;;;;;;35.58;28.55;;;20.00;99.90;;;;;;4927385;28;20083;-77
2021/07/13 10:03:14;;;;;;;36.95;28.02;;;19.90;99.90;;;;;;4949589;28;20151;-77
2021/07/13 10:05:43;;;;;;;37.88;29.42;;;19.80;99.90;;;;;;4948175;28;20065;-77
2021/07/13 10:08:13;;;;;;;50.05;34.80;;;19.90;99.90;;;;;;4948393;28;20067;-77
2021/07/13 10:10:42;;;;;;;41.75;32.00;;;20.10;99.90;;;;;;4964829;28;20055;-77
2021/07/13 10:13:19;;;;;;;37.83;30.90;;;20.30;99.90;;;;;;4964689;28;20079;-77
2021/07/13 10:15:49;;;;;;;42.90;34.58;;;20.40;99.90;;;;;;4963757;28;20053;-76
2021/07/13 10:18:20;;;;;;;40.38;31.52;;;20.50;99.90;;;;;;4948065;28;20082;-76
2021/07/13 10:20:49;;;;;;;46.75;35.30;;;20.50;99.90;;;;;;4929119;29;20615;-77
2021/07/13 10:23:17;;;;;;;44.30;35.63;;;20.50;99.90;;;;;;4946930;28;20780;-77
2021/07/13 10:25:45;;;;;;;39.42;31.80;;;20.60;99.90;;;;;;4960643;28;20426;-76
2021/07/13 10:28:17;;;;;;;40.03;31.60;;;20.40;99.90;;;;;;4963013;28;20057;-76
2021/07/13 10:30:46;;;;;;;40.95;32.03;;;20.30;99.90;;;;;;4950406;28;20059;-76
2021/07/13 10:33:27;;;;;;;39.28;31.38;;;20.30;99.90;;;;;;4929718;29;20039;-76
2021/07/13 10:35:56;;;;;;;43.55;30.77;;;20.40;99.90;;;;;;4914090;28;20085;-77
2021/07/13 10:38:24;;;;;;;40.75;32.15;;;20.40;99.90;;;;;;4930147;29;20400;-77
2021/07/13 10:40:54;;;;;;;40.35;32.78;;;20.50;99.90;;;;;;4909563;29;20047;-77
2021/07/13 10:43:22;;;;;;;42.50;33.58;;;20.50;99.90;;;;;;4911612;29;20077;-77
2021/07/13 10:46:10;;;;;;;50.72;38.42;;;20.40;99.90;;;;;;4942677;28;20082;-77
2021/07/13 10:48:38;;;;;;;46.45;35.15;;;20.40;99.90;;;;;;4917859;29;20059;-77
2021/07/13 10:51:07;;;;;;;44.47;35.35;;;20.30;99.90;;;;;;4950726;28;20396;-77
2021/07/13 10:53:39;;;;;;;42.50;32.22;;;20.20;99.90;;;;;;4934756;28;20273;-77
2021/07/13 10:56:13;;;;;;;46.15;34.63;;;20.10;99.90;;;;;;4945949;28;20046;-77
2021/07/13 10:58:45;;;;;;;45.60;34.92;;;20.00;99.90;;;;;;4945795;28;20391;-77
2021/07/13 11:01:33;;;;;;;45.90;34.03;;;20.00;99.90;;;;;;4947998;28;20491;-76
2021/07/13 11:04:05;;;;;;;41.10;33.28;;;20.00;99.90;;;;;;4949276;28;20055;-77
2021/07/13 11:06:42;;;;;;;41.35;32.88;;;19.90;99.90;;;;;;4950832;28;20693;-77
2021/07/13 11:09:20;;;;;;;49.10;37.75;;;20.00;99.90;;;;;;4930275;29;20071;-77
2021/07/13 11:11:48;;;;;;;46.28;35.47;;;20.20;99.90;;;;;;4917967;29;20138;-77
2021/07/13 11:14:15;;;;;;;42.42;33.15;;;20.10;99.90;;;;;;4949990;28;20070;-77
2021/07/13 11:16:44;;;;;;;52.33;37.13;;;20.10;99.90;;;;;;4964443;28;20055;-77
2021/07/13 11:19:16;;;;;;;46.45;36.10;;;20.20;99.90;;;;;;4952980;28;20050;-77
2021/07/13 11:21:48;;;;;;;44.85;36.67;;;20.30;99.90;;;;;;4968578;28;20150;-77
2021/07/13 11:24:19;;;;;;;46.13;35.80;;;20.40;99.90;;;;;;4967604;28;20089;-77
2021/07/13 11:26:49;;;;;;;49.88;38.30;;;20.30;99.90;;;;;;4963470;28;20509;-77
2021/07/13 11:29:28;;;;;;;38.83;30.73;;;20.40;99.90;;;;;;4956234;28;20047;-78
2021/07/13 11:32:01;;;;;;;33.83;27.00;;;20.30;99.90;;;;;;4933513;29;20043;-77
2021/07/13 11:34:36;;;;;;;31.38;25.17;;;20.40;99.90;;;;;;4950087;28;20114;-77
2021/07/13 11:37:06;;;;;;;32.80;26.38;;;20.40;99.90;;;;;;4962235;28;20165;-77
2021/07/13 11:39:35;;;;;;;35.45;27.67;;;20.50;99.90;;;;;;4969520;28;20065;-77
2021/07/13 11:42:10;;;;;;;35.60;28.17;;;20.60;99.90;;;;;;4968887;28;20483;-77
2021/07/13 11:44:39;;;;;;;34.20;27.35;;;20.70;99.90;;;;;;4945852;28;20058;-76
2021/07/13 11:47:14;;;;;;;31.00;24.83;;;20.80;99.90;;;;;;4943365;28;20138;-76
2021/07/13 11:49:42;;;;;;;31.25;25.10;;;20.90;99.90;;;;;;4930445;29;20063;-76
2021/07/13 11:52:12;;;;;;;33.40;25.58;;;20.90;99.90;;;;;;4911487;29;20058;-76
2021/07/13 11:54:41;;;;;;;33.22;25.83;;;20.80;99.90;;;;;;4929221;29;20559;-76
2021/07/13 11:57:13;;;;;;;33.60;25.30;;;20.80;99.90;;;;;;4943060;28;20046;-78
2021/07/13 11:59:41;;;;;;;29.80;24.27;;;20.80;99.90;;;;;;4957907;28;20047;-78
2021/07/13 12:02:08;;;;;;;36.13;25.27;;;21.10;99.90;;;;;;4948730;28;20047;-77
2021/07/13 12:04:38;;;;;;;29.13;23.67;;;21.40;99.90;;;;;;4933896;29;20059;-77
2021/07/13 12:07:05;;;;;;;26.95;23.45;;;21.50;99.90;;;;;;4949322;28;20055;-77
2021/07/13 12:09:34;;;;;;;30.40;23.50;;;21.60;99.90;;;;;;4949228;28;20600;-77
2021/07/13 12:12:10;;;;;;;22.67;19.58;;;21.60;99.90;;;;;;4932859;29;20201;-77
2021/07/13 12:14:39;;;;;;;26.15;20.83;;;21.70;99.90;;;;;;4965438;28;20074;-77
2021/07/13 12:17:06;;;;;;;24.48;20.67;;;21.60;99.90;;;;;;4949528;28;20039;-77
2021/07/13 12:19:35;;;;;;;21.60;18.70;;;21.50;99.90;;;;;;4968705;28;20057;-77
2021/07/13 12:22:10;;;;;;;20.10;17.42;;;21.50;99.90;;;;;;4962391;28;20058;-77
2021/07/13 12:24:47;;;;;;;18.88;15.95;;;21.60;99.90;;;;;;4929741;28;20130;-76
2021/07/13 12:27:18;;;;;;;17.75;15.23;;;21.70;99.90;;;;;;4944877;28;20083;-77
2021/07/13 12:29:57;;;;;;;19.65;14.88;;;21.70;99.90;;;;;;4938635;29;20051;-77
2021/07/13 12:32:32;;;;;;;17.75;15.57;;;21.90;99.90;;;;;;4948222;28;20040;-77
2021/07/13 12:35:27;;;;;;;15.75;14.15;;;22.10;99.90;;;;;;4951429;28;20047;-76
2021/07/13 12:37:54;;;;;;;16.92;13.73;;;22.10;99.90;;;;;;4946805;28;20044;-76
2021/07/13 12:40:27;;;;;;;14.77;13.23;;;22.20;99.90;;;;;;4954463;28;20039;-76
2021/07/13 12:43:09;;;;;;;16.30;13.23;;;22.40;99.90;;;;;;4950830;29;20047;-75
2021/07/13 12:45:36;;;;;;;13.70;12.23;;;22.50;99.90;;;;;;4964418;28;20336;-75